Time;durP1;ratioP1;P1;durP2;ratioP2;P2;SDS_P1;SDS_P2;PMS_P1;PMS_P2;Temp;Humidity;BMP_temperature;BMP_pressure;BME280_temperature;BME280_humidity;BME280_pressure;Samples;Min_cycle;Max_cycle;Signal;HPM_P1;HPM_P2
2022/05/08 00:01:28;;;;;;;12.68;3.88;;;;;;;11.02;77.30;101905.63;4924788;28;20130;-87
2022/05/08 00:03:58;;;;;;;17.23;5.22;;;;;;;10.90;78.43;101902.00;4928265;28;20060;-87
2022/05/08 00:06:24;;;;;;;16.25;4.70;;;;;;;10.79;79.28;101898.41;4910368;28;20083;-86
2022/05/08 00:08:52;;;;;;;12.00;4.13;;;;;;;10.64;78.71;101909.59;4902674;28;20052;-86
2022/05/08 00:11:19;;;;;;;12.32;5.13;;;;;;;10.52;80.01;101902.50;4916812;28;20052;-86
2022/05/08 00:13:47;;;;;;;8.38;3.30;;;;;;;10.45;80.35;101913.75;4930118;28;20103;-86
2022/05/08 00:16:14;;;;;;;13.60;4.78;;;;;;;10.36;80.61;101901.41;4920666;28;20048;-86
2022/05/08 00:18:41;;;;;;;13.52;4.07;;;;;;;10.26;81.18;101907.38;4941224;28;20054;-86
2022/05/08 00:21:08;;;;;;;13.00;4.28;;;;;;;10.16;81.17;101903.75;4919300;28;20143;-86
2022/05/08 00:23:35;;;;;;;12.45;4.57;;;;;;;10.10;82.25;101904.56;4925634;28;20051;-86
2022/05/08 00:26:08;;;;;;;9.13;4.10;;;;;;;10.06;82.10;101907.09;4920345;28;20115;-86
2022/05/08 00:28:39;;;;;;;12.27;3.92;;;;;;;9.99;82.14;101907.91;4929151;28;20044;-87
2022/05/08 00:31:11;;;;;;;14.00;6.20;;;;;;;9.98;82.26;101908.75;4915524;28;20496;-85
2022/05/08 00:33:40;;;;;;;14.60;4.43;;;;;;;9.96;81.88;101916.59;4947732;28;20944;-86
2022/05/08 00:36:08;;;;;;;14.18;5.10;;;;;;;9.92;81.56;101917.38;4925635;28;20052;-85
2022/05/08 00:38:35;;;;;;;10.73;3.72;;;;;;;9.87;82.09;101908.63;4924057;28;20062;-87
2022/05/08 00:41:03;;;;;;;11.45;4.53;;;;;;;9.79;81.81;101911.13;4916766;28;20044;-86
2022/05/08 00:43:34;;;;;;;12.07;3.92;;;;;;;9.71;82.06;101913.63;4886738;28;20759;-85
2022/05/08 00:46:12;;;;;;;19.42;4.70;;;;;;;9.63;82.26;101925.69;4916501;28;20059;-87
2022/05/08 00:48:40;;;;;;;8.00;3.85;;;;;;;9.53;82.67;101927.28;4920533;28;20040;-87
2022/05/08 00:51:10;;;;;;;15.77;3.58;;;;;;;9.44;83.06;101932.38;4930128;28;20056;-87
2022/05/08 00:53:40;;;;;;;10.43;3.75;;;;;;;9.40;83.24;101925.34;4922010;28;20056;-86
2022/05/08 00:56:10;;;;;;;14.48;3.92;;;;;;;9.37;83.07;101928.78;4899011;28;20067;-86
2022/05/08 00:58:42;;;;;;;9.32;3.80;;;;;;;9.32;82.98;101935.66;4916262;28;20055;-86
2022/05/08 01:01:10;;;;;;;16.85;5.63;;;;;;;9.26;83.02;101923.34;4914163;28;20051;-87
2022/05/08 01:03:39;;;;;;;14.30;5.70;;;;;;;9.22;83.12;101933.75;4953621;28;20071;-86
2022/05/08 01:06:12;;;;;;;14.55;3.95;;;;;;;9.19;82.77;101938.88;4900641;28;20052;-87
2022/05/08 01:08:52;;;;;;;13.07;4.22;;;;;;;9.13;83.60;101941.41;4891998;28;20788;-86
2022/05/08 01:11:20;;;;;;;12.30;3.92;;;;;;;9.07;83.25;101939.56;4900892;28;20162;-85
2022/05/08 01:13:48;;;;;;;15.48;5.38;;;;;;;9.01;83.67;101935.13;4914507;28;20082;-87
2022/05/08 01:16:18;;;;;;;14.35;4.60;;;;;;;8.92;84.25;101934.94;4909069;28;20055;-85
2022/05/08 01:18:48;;;;;;;11.80;3.35;;;;;;;8.86;83.74;101940.03;4997021;28;20056;-87
2022/05/08 01:21:22;;;;;;;10.88;3.60;;;;;;;8.79;84.19;101933.84;4921310;28;20044;-87
2022/05/08 01:23:49;;;;;;;15.13;4.63;;;;;;;8.73;84.83;101933.72;4900384;28;20453;-86
2022/05/08 01:26:23;;;;;;;12.95;2.95;;;;;;;8.65;84.99;101937.91;4909782;28;20052;-86
2022/05/08 01:28:51;;;;;;;12.85;3.65;;;;;;;8.57;85.41;101938.63;4918096;28;20769;-86
2022/05/08 01:31:19;;;;;;;13.20;3.65;;;;;;;8.50;85.81;101943.69;4905636;28;20085;-87
2022/05/08 01:33:45;;;;;;;19.63;4.20;;;;;;;8.41;85.72;101947.84;4912995;28;20072;-86
2022/05/08 01:36:14;;;;;;;19.85;4.85;;;;;;;8.35;86.42;101950.31;4913614;28;20051;-86
2022/05/08 01:38:40;;;;;;;13.38;4.38;;;;;;;8.26;86.52;101952.72;4911264;28;20040;-87
2022/05/08 01:41:08;;;;;;;9.43;3.80;;;;;;;8.18;86.92;101951.69;4895886;28;20050;-86
2022/05/08 01:43:36;;;;;;;15.70;3.90;;;;;;;8.12;87.23;101960.25;4914525;28;20045;-86
2022/05/08 01:46:04;;;;;;;22.90;5.70;;;;;;;8.07;87.99;101967.09;4902407;28;20055;-86
2022/05/08 01:48:30;;;;;;;11.95;3.72;;;;;;;8.04;87.90;101954.84;4892627;28;20050;-86
2022/05/08 01:50:59;;;;;;;15.73;4.90;;;;;;;8.01;87.90;101959.16;4895693;28;20060;-86
2022/05/08 01:53:33;;;;;;;14.40;3.72;;;;;;;7.92;88.09;101963.28;4911679;28;20044;-86
2022/05/08 01:56:02;;;;;;;20.98;3.83;;;;;;;7.89;88.75;101955.41;4909040;28;20052;-86
2022/05/08 01:58:30;;;;;;;16.42;4.35;;;;;;;7.87;88.60;101961.44;4894791;28;20056;-87
2022/05/08 02:00:58;;;;;;;12.60;3.28;;;;;;;7.84;88.72;101969.19;4925178;28;20450;-88
2022/05/08 02:03:25;;;;;;;18.63;5.60;;;;;;;7.76;89.06;101962.06;4922437;28;20044;-86
2022/05/08 02:05:53;;;;;;;15.73;4.30;;;;;;;7.74;88.86;101963.75;4919946;28;20048;-86
2022/05/08 02:08:19;;;;;;;13.05;3.88;;;;;;;7.69;89.47;101959.25;4923646;28;20056;-85
2022/05/08 02:10:46;;;;;;;9.52;3.47;;;;;;;7.66;89.56;101969.63;4936613;28;20048;-86
2022/05/08 02:13:13;;;;;;;10.98;4.13;;;;;;;7.63;89.86;101973.03;4902858;28;20927;-85
2022/05/08 02:15:40;;;;;;;18.13;4.05;;;;;;;7.60;89.60;101970.34;4894846;28;20059;-85
2022/05/08 02:18:09;;;;;;;17.05;4.95;;;;;;;7.57;90.22;101975.50;4922371;28;20453;-85
2022/05/08 02:20:39;;;;;;;11.00;3.92;;;;;;;7.50;90.53;101984.00;4910266;28;20311;-84
2022/05/08 02:23:07;;;;;;;17.75;3.22;;;;;;;7.43;90.75;101980.34;4934983;28;20044;-84
2022/05/08 02:25:34;;;;;;;11.57;4.30;;;;;;;7.38;91.04;101982.84;4985514;28;20048;-86
2022/05/08 02:28:00;;;;;;;15.30;4.00;;;;;;;7.34;91.56;101987.94;4938064;28;20052;-88
2022/05/08 02:30:27;;;;;;;16.30;4.53;;;;;;;7.31;91.56;101986.13;4930767;28;20063;-86
2022/05/08 02:32:55;;;;;;;15.27;4.60;;;;;;;7.27;91.87;101987.78;4920327;28;20080;-86
2022/05/08 02:35:23;;;;;;;11.35;4.32;;;;;;;7.23;91.69;101987.66;4921438;28;20059;-87
2022/05/08 02:37:53;;;;;;;12.07;3.80;;;;;;;7.19;92.29;101973.66;4911084;28;20136;-85
2022/05/08 02:40:22;;;;;;;17.83;3.95;;;;;;;7.16;92.12;101978.81;4922745;28;20048;-87
2022/05/08 02:42:49;;;;;;;20.58;4.45;;;;;;;7.11;92.53;101981.28;4915110;28;20067;-86
2022/05/08 02:45:18;;;;;;;15.63;4.70;;;;;;;7.08;92.77;101981.19;4916336;28;20047;-86
2022/05/08 02:47:45;;;;;;;16.95;3.78;;;;;;;7.06;93.06;101988.06;4924615;28;20147;-86
2022/05/08 02:50:13;;;;;;;20.10;5.22;;;;;;;7.04;93.21;101986.28;4928989;28;20103;-87
2022/05/08 02:52:41;;;;;;;12.02;4.32;;;;;;;7.02;92.99;101980.16;4943548;28;20050;-86
2022/05/08 03:03:21;;;;;;;17.48;3.85;;;;;;;6.91;94.08;101987.66;4926054;28;20052;-87
2022/05/08 03:05:49;;;;;;;8.85;3.63;;;;;;;6.86;93.59;101990.16;4925632;28;20071;-87
2022/05/08 03:08:23;;;;;;;16.60;5.43;;;;;;;6.83;94.17;101986.56;4907879;28;21475;-86
2022/05/08 03:13:44;;;;;;;22.05;5.18;;;;;;;6.76;94.57;101983.78;4925133;28;20063;-86
2022/05/08 03:16:12;;;;;;;14.60;3.38;;;;;;;6.74;94.50;101987.19;4919158;28;20125;-85
2022/05/08 03:18:40;;;;;;;13.05;4.47;;;;;;;6.70;94.65;101987.94;4924410;28;20043;-87
2022/05/08 03:21:10;;;;;;;17.30;5.63;;;;;;;6.68;94.99;101984.44;4898755;28;20055;-86
2022/05/08 03:23:39;;;;;;;11.68;4.03;;;;;;;6.67;94.78;101993.06;4909629;28;20139;-86
2022/05/08 03:26:07;;;;;;;11.27;4.38;;;;;;;6.66;95.34;101986.97;4903809;28;20055;-85
2022/05/08 03:28:39;;;;;;;16.42;4.80;;;;;;;6.68;95.17;102000.03;4923317;28;20054;-86
2022/05/08 03:31:05;;;;;;;18.83;3.60;;;;;;;6.66;95.19;102006.91;4903560;28;20098;-86
2022/05/08 03:33:37;;;;;;;11.20;4.20;;;;;;;6.66;95.10;102004.31;4967374;28;20078;-86
2022/05/08 03:36:05;;;;;;;20.77;4.43;;;;;;;6.64;95.22;101998.19;4905738;28;20130;-86
2022/05/08 03:38:35;;;;;;;16.17;4.55;;;;;;;6.62;95.55;102001.63;4897414;28;20056;-86
2022/05/08 03:41:02;;;;;;;11.15;4.35;;;;;;;6.58;95.39;102011.88;4919134;28;20145;-86
2022/05/08 03:43:29;;;;;;;13.13;5.97;;;;;;;6.52;95.58;102012.59;4926826;28;20126;-86
2022/05/08 03:45:57;;;;;;;16.58;4.50;;;;;;;6.49;96.03;102006.41;4931079;28;20310;-86
2022/05/08 03:48:23;;;;;;;14.07;4.15;;;;;;;6.46;95.90;102004.59;4925803;28;20074;-86
2022/05/08 03:50:50;;;;;;;17.77;4.40;;;;;;;6.44;96.13;102008.88;4929844;28;20470;-85
2022/05/08 03:53:17;;;;;;;10.93;4.53;;;;;;;6.44;96.08;102004.56;4899530;28;20059;-86
2022/05/08 03:55:44;;;;;;;20.10;4.88;;;;;;;6.44;96.31;102003.66;4899797;28;20055;-85
2022/05/08 03:58:10;;;;;;;20.35;5.95;;;;;;;6.46;95.93;102000.28;4904321;28;20050;-85
2022/05/08 04:00:37;;;;;;;13.88;4.35;;;;;;;6.48;96.29;102007.25;4897595;28;20048;-86
2022/05/08 04:03:03;;;;;;;10.05;4.35;;;;;;;6.48;95.80;102002.03;4925524;28;20056;-85
2022/05/08 04:05:30;;;;;;;18.25;6.30;;;;;;;6.49;95.80;102003.81;4902420;28;20075;-84
2022/05/08 04:07:57;;;;;;;15.90;4.18;;;;;;;6.49;95.79;101996.00;4910211;28;20060;-85
2022/05/08 04:10:24;;;;;;;14.85;4.57;;;;;;;6.52;96.67;101993.50;4913486;28;20071;-86
2022/05/08 04:12:50;;;;;;;13.95;4.38;;;;;;;6.55;95.64;101997.06;4921480;28;20059;-86
2022/05/08 04:18:01;;;;;;;;;;;;;;;6.58;95.48;101998.88;4916779;28;20052;-86
2022/05/08 04:20:28;;;;;;;15.10;4.43;;;;;;;6.59;95.27;101998.91;4892945;28;20069;-87
2022/05/08 04:25:38;;;;;;;11.77;4.80;;;;;;;6.72;94.89;101994.94;4906521;28;20598;-85
2022/05/08 04:28:05;;;;;;;18.08;4.85;;;;;;;6.73;94.45;102001.06;4991928;28;20045;-86
2022/05/08 04:30:31;;;;;;;12.40;4.28;;;;;;;6.71;94.17;102008.78;4905143;28;20063;-86
2022/05/08 04:32:58;;;;;;;13.25;4.13;;;;;;;6.74;94.69;102015.81;4913294;28;20059;-87
2022/05/08 04:35:24;;;;;;;17.98;4.93;;;;;;;6.73;94.78;102017.53;4907130;28;20141;-86
2022/05/08 04:37:51;;;;;;;13.55;4.32;;;;;;;6.76;94.75;102021.97;4910768;28;20679;-86
2022/05/08 04:40:18;;;;;;;9.05;4.50;;;;;;;6.78;94.36;102020.28;4885648;28;20062;-87
2022/05/08 04:42:44;;;;;;;18.25;6.20;;;;;;;6.81;94.50;102027.31;4907831;28;20679;-86
2022/05/08 04:45:11;;;;;;;13.90;3.80;;;;;;;6.84;94.50;102033.47;4898247;28;20044;-86
2022/05/08 04:47:38;;;;;;;19.70;5.60;;;;;;;6.88;94.27;102031.84;4894061;28;20060;-88
2022/05/08 04:50:05;;;;;;;13.80;4.10;;;;;;;6.90;94.00;102031.03;4894798;28;20134;-87
2022/05/08 04:52:32;;;;;;;14.18;4.80;;;;;;;6.93;93.98;102033.72;4911712;28;20052;-85
2022/05/08 04:54:59;;;;;;;12.82;4.10;;;;;;;6.95;93.55;102037.25;4893931;28;20048;-85
2022/05/08 04:57:30;;;;;;;14.07;3.85;;;;;;;6.97;93.38;102042.50;4894898;28;20132;-86
2022/05/08 05:00:01;;;;;;;16.38;4.32;;;;;;;6.98;93.34;102038.19;4892172;28;20056;-86
2022/05/08 05:02:28;;;;;;;15.48;3.58;;;;;;;7.01;93.20;102043.47;4898382;28;20044;-87
2022/05/08 05:04:57;;;;;;;16.15;3.67;;;;;;;7.04;92.83;102048.75;4907004;28;20052;-87
2022/05/08 05:07:24;;;;;;;13.57;3.55;;;;;;;7.05;92.38;102059.25;4907591;28;20063;-87
2022/05/08 05:09:51;;;;;;;11.63;4.20;;;;;;;7.06;92.48;102060.13;4912527;28;20052;-87
2022/05/08 05:12:18;;;;;;;11.38;4.22;;;;;;;7.08;92.17;102055.84;4910972;28;20044;-86
2022/05/08 05:14:47;;;;;;;15.30;3.42;;;;;;;7.10;92.00;102060.25;4908816;28;20047;-84
2022/05/08 05:17:13;;;;;;;15.20;4.47;;;;;;;7.14;91.98;102068.16;4901876;28;20149;-87
2022/05/08 05:19:40;;;;;;;15.02;4.55;;;;;;;7.17;91.50;102069.13;4909128;28;20048;-84
2022/05/08 05:22:07;;;;;;;17.80;5.55;;;;;;;7.23;91.49;102071.00;4906331;28;20131;-87
2022/05/08 05:24:34;;;;;;;14.65;3.55;;;;;;;7.26;90.99;102069.38;4889018;28;20076;-84
2022/05/08 05:27:01;;;;;;;20.02;5.70;;;;;;;7.31;90.47;102074.69;4907206;28;20076;-85
2022/05/08 05:29:27;;;;;;;13.85;3.85;;;;;;;7.32;89.94;102071.25;4918142;28;20055;-85
2022/05/08 05:31:54;;;;;;;11.73;3.45;;;;;;;7.36;89.70;102077.44;4918194;28;20050;-87
2022/05/08 05:34:21;;;;;;;8.90;3.55;;;;;;;7.38;89.80;102073.13;4894451;28;20431;-86
2022/05/08 05:36:47;;;;;;;10.63;3.58;;;;;;;7.43;89.30;102079.34;4913466;28;20043;-86
2022/05/08 05:39:14;;;;;;;14.60;4.05;;;;;;;7.47;88.49;102073.41;4899769;28;20139;-85
2022/05/08 05:41:41;;;;;;;11.52;3.40;;;;;;;7.50;87.67;102083.91;4912016;28;20044;-85
2022/05/08 05:44:08;;;;;;;12.20;3.35;;;;;;;7.55;87.31;102084.03;4906813;28;20055;-87
2022/05/08 05:49:20;;;;;;;13.60;3.28;;;;;;;7.61;83.70;102082.47;4896062;28;20487;-86
2022/05/08 05:51:49;;;;;;;11.60;3.42;;;;;;;7.66;82.93;102089.53;4904011;28;20135;-85
2022/05/08 05:54:18;;;;;;;9.52;4.13;;;;;;;7.65;83.11;102090.34;4895028;28;20095;-84
2022/05/08 05:56:45;;;;;;;10.63;3.20;;;;;;;7.70;82.63;102097.44;4911162;28;20645;-87
2022/05/08 05:59:12;;;;;;;17.83;3.22;;;;;;;7.74;82.57;102098.41;4878706;28;20926;-87
2022/05/08 06:01:39;;;;;;;13.45;3.00;;;;;;;7.78;80.08;102098.53;4917830;28;20896;-87
2022/05/08 06:04:06;;;;;;;11.45;3.08;;;;;;;7.80;80.48;102095.97;4930008;28;20494;-85
2022/05/08 06:06:33;;;;;;;9.15;2.70;;;;;;;7.80;79.80;102095.09;4891112;28;20056;-85
2022/05/08 06:08:59;;;;;;;16.50;2.97;;;;;;;7.80;80.22;102101.19;4911689;28;20040;-84
2022/05/08 06:11:27;;;;;;;15.57;3.80;;;;;;;7.87;79.55;102102.22;4898312;28;20056;-86
2022/05/08 06:13:53;;;;;;;16.05;3.13;;;;;;;7.88;80.05;102099.66;4916086;28;20056;-84
2022/05/08 06:16:20;;;;;;;7.95;2.28;;;;;;;7.96;80.26;102094.63;4910841;28;20048;-87
2022/05/08 06:18:53;;;;;;;11.38;2.97;;;;;;;8.08;79.75;102094.94;4913448;28;20049;-85
2022/05/08 06:21:20;;;;;;;10.23;2.58;;;;;;;8.20;79.40;102098.69;4889638;28;20048;-86
2022/05/08 06:23:47;;;;;;;9.55;2.63;;;;;;;8.27;78.32;102095.38;4891680;28;20075;-86
2022/05/08 06:26:15;;;;;;;9.38;3.35;;;;;;;8.37;78.42;102099.97;4901088;28;20048;-86
2022/05/08 06:28:45;;;;;;;9.30;3.03;;;;;;;8.46;76.98;102099.34;4909797;28;20243;-85
2022/05/08 06:31:17;;;;;;;15.23;2.58;;;;;;;8.52;76.82;102094.25;4916783;28;20074;-85
2022/05/08 06:33:45;;;;;;;6.35;2.33;;;;;;;8.56;76.45;102097.81;4908763;28;20044;-84
2022/05/08 06:36:12;;;;;;;7.35;2.55;;;;;;;8.61;76.34;102091.84;4901711;28;21327;-84
2022/05/08 06:38:39;;;;;;;11.70;2.35;;;;;;;8.63;75.74;102088.38;4903005;28;20094;-85
2022/05/08 06:41:11;;;;;;;9.30;3.13;;;;;;;8.75;74.97;102094.75;4902793;28;20052;-85
2022/05/08 06:43:40;;;;;;;16.40;3.97;;;;;;;8.83;73.84;102092.31;4927211;28;20040;-85
2022/05/08 06:46:09;;;;;;;8.20;3.05;;;;;;;8.79;73.42;102093.09;4910264;28;20058;-85
2022/05/08 06:48:36;;;;;;;6.97;2.28;;;;;;;8.75;74.23;102089.53;4932704;28;20042;-85
2022/05/08 06:51:03;;;;;;;9.77;2.35;;;;;;;8.76;74.19;102093.91;4928699;28;20038;-84
2022/05/08 06:53:31;;;;;;;11.85;2.75;;;;;;;8.90;73.73;102091.63;4902744;28;20056;-86
2022/05/08 06:55:58;;;;;;;10.23;3.13;;;;;;;9.05;73.22;102100.63;4928449;28;20068;-85
2022/05/08 06:58:25;;;;;;;7.38;2.53;;;;;;;9.22;72.79;102091.38;4925281;28;20052;-87
2022/05/08 07:03:48;;;;;;;6.85;1.90;;;;;;;9.98;69.72;102100.59;4944901;28;20151;-85
2022/05/08 07:06:15;;;;;;;9.20;3.40;;;;;;;10.42;67.99;102089.09;4927116;28;20034;-86
2022/05/08 07:08:43;;;;;;;9.00;2.33;;;;;;;10.87;66.55;102087.09;4908483;28;20099;-85
2022/05/08 07:11:09;;;;;;;10.02;2.78;;;;;;;11.47;64.99;102093.06;4910638;28;20106;-85
2022/05/08 07:13:38;;;;;;;7.82;2.55;;;;;;;12.03;62.18;102086.59;4903797;28;20244;-85
2022/05/08 07:16:06;;;;;;;8.52;3.20;;;;;;;12.43;62.05;102090.38;4893901;28;20110;-84
2022/05/08 07:18:33;;;;;;;9.10;2.95;;;;;;;12.95;60.46;102095.91;4921591;28;20050;-83
2022/05/08 07:21:00;;;;;;;13.55;3.55;;;;;;;13.37;58.91;102094.31;4915872;28;20053;-85
2022/05/08 07:23:27;;;;;;;9.07;2.95;;;;;;;13.73;58.04;102090.00;4916459;28;20055;-85
2022/05/08 07:25:53;;;;;;;8.30;2.50;;;;;;;14.12;57.00;102095.28;4893197;28;20510;-85
2022/05/08 07:28:27;;;;;;;8.95;2.85;;;;;;;14.44;55.60;102091.72;4921593;28;20165;-87
2022/05/08 07:30:55;;;;;;;9.90;2.38;;;;;;;14.66;54.57;102084.66;4910327;28;20076;-87
2022/05/08 07:33:22;;;;;;;7.13;1.98;;;;;;;14.89;52.26;102087.22;4900199;28;20106;-86
2022/05/08 07:38:34;;;;;;;10.90;1.95;;;;;;;15.81;50.67;102089.38;4915695;28;20042;-84
2022/05/08 07:41:02;;;;;;;7.25;1.98;;;;;;;16.12;48.41;102084.69;4897084;28;20055;-87
2022/05/08 07:43:29;;;;;;;6.97;2.88;;;;;;;16.18;46.10;102073.22;4899680;28;20055;-87
2022/05/08 07:45:55;;;;;;;5.47;1.70;;;;;;;16.16;46.09;102083.78;4908880;28;20049;-84
2022/05/08 07:48:25;;;;;;;6.55;2.45;;;;;;;16.24;45.93;102089.00;4920049;28;20567;-85
2022/05/08 07:50:52;;;;;;;8.30;1.98;;;;;;;16.08;46.03;102092.69;4894215;28;20040;-87
2022/05/08 07:53:19;;;;;;;6.97;1.92;;;;;;;16.29;45.40;102084.53;4935995;28;20052;-85
2022/05/08 07:55:51;;;;;;;7.65;2.17;;;;;;;16.42;45.14;102087.94;4918994;28;20132;-86
2022/05/08 07:58:19;;;;;;;8.48;2.45;;;;;;;16.21;44.61;102092.53;4898962;28;20048;-86
2022/05/08 08:00:49;;;;;;;5.40;1.80;;;;;;;16.08;44.95;102084.75;4917105;28;20052;-87
2022/05/08 08:03:18;;;;;;;4.22;1.55;;;;;;;16.37;45.13;102084.47;4908225;28;20202;-87
2022/05/08 08:05:45;;;;;;;8.02;2.08;;;;;;;17.01;43.79;102085.53;4903902;28;20109;-86
2022/05/08 08:08:15;;;;;;;5.07;1.77;;;;;;;17.61;42.71;102088.22;4919172;28;20044;-86
2022/05/08 08:10:41;;;;;;;9.00;1.88;;;;;;;18.07;40.58;102086.59;4915577;28;20101;-87
2022/05/08 08:13:08;;;;;;;6.72;2.17;;;;;;;18.27;41.00;102091.56;4918209;28;20060;-84
2022/05/08 08:15:35;;;;;;;9.02;1.70;;;;;;;18.64;40.25;102096.16;4912675;28;20044;-87
2022/05/08 08:18:02;;;;;;;5.50;1.48;;;;;;;19.14;38.75;102088.09;4913920;28;20094;-88
2022/05/08 08:20:28;;;;;;;4.03;1.27;;;;;;;19.61;37.81;102087.94;4882353;28;20048;-85
2022/05/08 08:22:55;;;;;;;5.90;1.67;;;;;;;19.76;36.39;102084.00;4915413;28;20438;-87
2022/05/08 08:25:22;;;;;;;7.32;2.55;;;;;;;19.64;36.73;102094.00;4913245;28;20048;-85
2022/05/08 08:27:49;;;;;;;4.43;1.58;;;;;;;19.99;36.33;102086.13;4913019;28;20126;-86
2022/05/08 08:30:18;;;;;;;3.03;1.45;;;;;;;20.28;35.84;102089.81;4916493;28;20051;-87
2022/05/08 08:32:45;;;;;;;4.95;1.90;;;;;;;21.09;34.20;102089.31;4896262;28;20044;-87
2022/05/08 08:35:12;;;;;;;4.07;1.50;;;;;;;21.85;33.29;102088.72;4912368;28;20123;-90
2022/05/08 08:37:38;;;;;;;4.13;1.63;;;;;;;22.21;32.61;102096.41;4893952;28;20112;-88
2022/05/08 08:40:20;;;;;;;3.22;1.63;;;;;;;22.30;31.98;102086.25;4883100;28;20044;-87
2022/05/08 08:42:50;;;;;;;6.55;1.30;;;;;;;22.37;32.18;102089.63;4915857;28;20086;-88
2022/05/08 08:48:17;;;;;;;8.35;2.45;;;;;;;22.82;30.82;102098.66;4925143;28;20075;-89
2022/05/08 08:50:47;;;;;;;5.67;2.07;;;;;;;22.79;31.03;102101.47;4928029;28;20059;-86
2022/05/08 08:53:15;;;;;;;4.70;1.73;;;;;;;23.37;30.71;102097.50;4907802;28;20077;-85
2022/05/08 08:55:42;;;;;;;5.35;1.55;;;;;;;23.29;30.26;102098.66;4919446;28;20139;-86
2022/05/08 08:58:09;;;;;;;5.45;1.60;;;;;;;23.25;30.69;102107.72;4916908;28;20861;-87
2022/05/08 09:00:36;;;;;;;6.30;1.92;;;;;;;22.86;30.88;102102.97;4905959;28;20048;-88
2022/05/08 09:03:04;;;;;;;5.80;1.90;;;;;;;22.77;31.01;102117.50;4924882;28;20423;-88
2022/05/08 09:05:37;;;;;;;5.90;2.30;;;;;;;23.03;31.07;102105.00;4920264;28;21025;-88
2022/05/08 09:10:49;;;;;;;4.75;1.75;;;;;;;24.26;29.25;102112.53;4919730;28;20044;-87
2022/05/08 09:13:18;;;;;;;4.95;1.10;;;;;;;24.03;29.06;102116.19;4946002;28;20052;-87
2022/05/08 09:15:45;;;;;;;6.53;1.83;;;;;;;23.88;29.41;102114.13;4919877;28;20058;-88
2022/05/08 09:18:14;;;;;;;4.82;1.50;;;;;;;23.92;28.87;102111.31;4927431;28;20044;-88
2022/05/08 09:20:48;;;;;;;4.20;1.52;;;;;;;24.12;28.86;102117.63;4909795;28;20058;-86
2022/05/08 09:23:25;;;;;;;4.47;1.75;;;;;;;24.33;27.48;102114.94;4915193;28;20048;-86
2022/05/08 09:26:00;;;;;;;4.85;1.98;;;;;;;24.31;28.52;102115.00;4910287;28;20111;-85
2022/05/08 09:28:34;;;;;;;6.30;1.83;;;;;;;24.94;27.55;102119.38;4912496;28;20052;-86
2022/05/08 09:31:08;;;;;;;3.85;1.50;;;;;;;25.50;25.43;102117.63;4915322;28;20139;-86
2022/05/08 09:33:42;;;;;;;4.20;1.75;;;;;;;25.78;25.50;102116.25;4898393;28;20045;-87
2022/05/08 09:36:22;;;;;;;6.72;1.80;;;;;;;25.95;25.76;102115.41;4927578;28;20220;-84
2022/05/08 09:38:54;;;;;;;4.82;1.60;;;;;;;25.71;25.79;102110.34;4900121;28;20052;-85
2022/05/08 09:41:30;;;;;;;4.88;2.00;;;;;;;25.51;25.74;102105.94;4917908;28;20131;-88
2022/05/08 09:44:18;;;;;;;6.35;1.63;;;;;;;25.70;24.88;102121.16;4923474;28;20152;-86
2022/05/08 09:46:48;;;;;;;5.68;1.90;;;;;;;25.70;25.60;102111.28;4925791;28;20139;-85
2022/05/08 09:49:26;;;;;;;8.48;1.90;;;;;;;26.03;25.64;102106.97;4920633;28;20052;-86
2022/05/08 09:51:54;;;;;;;4.20;1.27;;;;;;;26.57;25.34;102112.25;4905575;28;20059;-86
2022/05/08 09:54:21;;;;;;;5.35;2.15;;;;;;;26.72;25.13;102106.06;4898452;28;20128;-87
2022/05/08 09:56:55;;;;;;;3.45;1.90;;;;;;;26.96;24.17;102105.69;4907833;28;20445;-85
2022/05/08 09:59:22;;;;;;;6.80;1.70;;;;;;;26.55;24.87;102100.72;4922125;28;20048;-86
2022/05/08 10:01:50;;;;;;;5.97;1.70;;;;;;;27.38;23.93;102106.94;4898276;28;20126;-86
2022/05/08 10:04:18;;;;;;;5.32;2.10;;;;;;;28.14;23.44;102094.44;4918586;28;20559;-87
2022/05/08 10:06:45;;;;;;;4.40;2.25;;;;;;;28.70;23.05;102102.69;4922291;28;20502;-89
2022/05/08 10:14:49;;;;;;;4.45;1.85;;;;;;;29.66;22.25;102099.22;4893326;28;20213;-87
2022/05/08 10:17:16;;;;;;;3.80;1.67;;;;;;;29.87;21.79;102093.38;4895449;28;20131;-87
2022/05/08 10:19:49;;;;;;;4.40;1.50;;;;;;;30.13;21.30;102098.78;4909237;28;20052;-88
2022/05/08 10:22:16;;;;;;;4.25;1.50;;;;;;;30.32;21.10;102092.97;4905310;28;20101;-86
2022/05/08 10:24:54;;;;;;;4.00;1.58;;;;;;;30.03;20.88;102095.88;4905733;28;20075;-88
2022/05/08 10:27:29;;;;;;;6.93;1.88;;;;;;;29.31;20.57;102093.50;4923653;28;20104;-88
2022/05/08 10:29:56;;;;;;;4.82;1.70;;;;;;;29.07;21.55;102090.53;4925340;28;20052;-88
2022/05/08 10:32:30;;;;;;;4.35;1.70;;;;;;;29.62;20.43;102092.31;4914031;28;20064;-87
2022/05/08 10:35:19;;;;;;;4.18;2.15;;;;;;;29.59;20.57;102083.56;4912985;28;20055;-86
2022/05/08 10:37:50;;;;;;;3.85;2.10;;;;;;;29.64;20.73;102086.81;4898177;28;20067;-89
2022/05/08 10:40:23;;;;;;;1.43;1.10;;;;;;;29.20;21.11;102084.25;4909674;28;20052;-88
2022/05/08 10:42:55;;;;;;;;;;;;;;;28.97;20.80;102080.34;4913378;28;20044;-88
2022/05/08 10:45:40;;;;;;;6.05;1.95;;;;;;;29.58;20.08;102080.00;4921567;28;19941;-87
2022/05/08 10:48:16;;;;;;;6.32;2.50;;;;;;;30.39;20.16;102080.78;4895448;28;20044;-91
2022/05/08 10:53:39;;;;;;;6.65;1.92;;;;;;;31.15;19.37;102088.91;4922430;28;20092;-89
2022/05/08 10:56:12;;;;;;;5.53;1.80;;;;;;;31.05;19.43;102088.72;4901720;28;20048;-90
2022/05/08 10:58:53;;;;;;;4.97;1.90;;;;;;;30.99;19.23;102083.75;4915431;28;20122;-91
2022/05/08 11:01:19;;;;;;;9.05;6.55;;;;;;;31.01;19.76;102089.88;4909010;28;20041;-88
2022/05/08 11:03:46;;;;;;;4.15;2.00;;;;;;;31.55;19.20;102085.91;4895349;28;20039;-88
2022/05/08 11:06:22;;;;;;;6.03;2.40;;;;;;;31.29;18.82;102087.84;4928107;28;20075;-89
2022/05/08 11:08:49;;;;;;;5.00;1.90;;;;;;;31.51;19.10;102079.88;4900607;28;20052;-87
2022/05/08 11:11:23;;;;;;;5.43;1.50;;;;;;;32.14;18.28;102079.59;4918317;28;20052;-87
2022/05/08 11:13:51;;;;;;;3.63;2.20;;;;;;;32.41;17.77;102070.28;4928822;28;20060;-87
2022/05/08 11:16:36;;;;;;;3.85;1.67;;;;;;;31.88;18.54;102073.50;4914599;28;20044;-89
2022/05/08 11:19:06;;;;;;;4.32;1.55;;;;;;;32.22;18.33;102084.44;4913353;28;20540;-88
2022/05/08 11:21:35;;;;;;;7.00;2.03;;;;;;;32.06;17.83;102084.75;4921373;28;20063;-89
2022/05/08 11:24:03;;;;;;;3.67;1.58;;;;;;;32.45;17.69;102079.00;4918603;28;20499;-90
2022/05/08 11:26:35;;;;;;;3.00;1.50;;;;;;;33.17;16.81;102080.44;4940828;28;20057;-88
2022/05/08 11:29:06;;;;;;;5.97;1.90;;;;;;;33.23;16.77;102079.94;4921049;28;20083;-87
2022/05/08 11:36:03;;;;;;;3.55;1.40;;;;;;;33.38;16.77;102068.81;4895419;28;20478;-87
2022/05/08 11:37:08;;;;;;;4.38;1.90;;;;;;;33.51;16.41;102072.22;4902515;28;20519;-88
2022/05/08 11:39:35;;;;;;;5.78;1.40;;;;;;;34.08;15.98;102072.78;4917497;28;20055;-89
2022/05/08 11:44:47;;;;;;;4.57;1.73;;;;;;;33.90;16.14;102060.81;4921181;28;20048;-90
2022/05/08 11:47:13;;;;;;;4.25;1.80;;;;;;;34.08;16.12;102056.50;4901260;28;20060;-88
2022/05/08 11:49:42;;;;;;;3.88;1.40;;;;;;;34.23;15.80;102058.84;4907210;28;20139;-88
2022/05/08 11:52:25;;;;;;;2.13;1.45;;;;;;;34.38;15.35;102056.66;4901550;28;20048;-88
2022/05/08 11:55:00;;;;;;;5.15;2.17;;;;;;;34.49;15.16;102056.56;4907469;28;20071;-90
2022/05/08 11:57:28;;;;;;;5.25;1.30;;;;;;;35.19;14.84;102053.91;4900847;28;20043;-87
2022/05/08 12:00:11;;;;;;;3.58;1.92;;;;;;;35.35;13.45;102053.34;4889041;28;20114;-88
2022/05/08 12:02:55;;;;;;;6.88;1.85;;;;;;;35.33;14.22;102055.34;4908721;28;20054;-89
2022/05/08 12:05:26;;;;;;;3.00;1.92;;;;;;;35.96;14.29;102048.56;4920245;28;20118;-87
2022/05/08 12:07:53;;;;;;;4.22;1.42;;;;;;;36.70;13.80;102051.44;4933041;28;20068;-88
2022/05/08 12:10:45;;;;;;;2.63;1.63;;;;;;;36.39;12.78;102046.31;4901096;28;20060;-89
2022/05/08 12:13:11;;;;;;;2.97;1.63;;;;;;;35.88;13.46;102042.97;4916041;28;20067;-89
2022/05/08 12:15:41;;;;;;;3.50;1.38;;;;;;;35.41;13.16;102036.44;4908669;28;20044;-90
2022/05/08 12:18:08;;;;;;;4.63;1.55;;;;;;;35.77;13.21;102036.69;4922993;28;20056;-87
2022/05/08 12:20:39;;;;;;;3.55;1.45;;;;;;;35.98;12.93;102034.81;4909766;28;20134;-90